Zaanstad, Netherlands
Current Conditions -  °F | °C
As of 2:25 PM on Saturday 20 Dec 2014 (Local Time) from EHAM Reporting Station
Few Clouds Few Clouds  
Wind Chill: 40°   Ceiling: Unl
Heat Index: 48°   Visibility: 6mi
Dew Point: 39°   Wind: 26mph
Humidity: 71%   Direction: 280°W
Pressure: 30.06"   Gusts: 38mph
Location:  52.45°N, 4.81°E
Report Text: EHAM 201325Z 28023G33KT 250V310 9999 FEW025 09/04 Q1018 NOSIG
Loading
Personal Weather Stations






























Interactive Weather Map New forecast layout! Learn more

10-Day Weather Forecast

Advertisements
Track Severe Weather on mobile